This is the latest recevied weather packets stored in our database for station/object WP3OF-3. If no packets are shown the sender has not sent any weather packets the latest 10 day(s).
| Time | Temp. | Humidity | Pressure | Rain* | Wind** | Luminosity | Snow |
|---|---|---|---|---|---|---|---|
| 1777479353 | 28.33° C | 74% | 1017.6 hPa | 0 mm | - | - | - |
| 1777479049 | 29.44° C | 71% | 1017.4 hPa | 0 mm | - | - | - |
| 1777478746 | 28.33° C | 75% | 1017.4 hPa | 0 mm | - | - | - |
| 1777478442 | 28.33° C | 73% | 1017.4 hPa | 0 mm | - | - | - |
| 1777478139 | 29.44° C | 71% | 1017.4 hPa | 0 mm | - | - | - |
| 1777477836 | 29.44° C | 70% | 1017.5 hPa | 0 mm | - | - | - |
| 1777477531 | 29.44° C | 70% | 1017.5 hPa | 0 mm | - | - | - |
| 1777477228 | 28.33° C | 73% | 1017.6 hPa | 0 mm | - | - | - |
| 1777476924 | 28.89° C | 71% | 1017.9 hPa | 0 mm | - | - | - |
| 1777476623 | 28.89° C | 70% | 1017.6 hPa | 0 mm | - | - | - |
| 1777476319 | 28.89° C | 71% | 1017.7 hPa | 0 mm | - | - | - |
| 1777476015 | 28.89° C | 70% | 1017.7 hPa | 0 mm | - | - | - |
| 1777475710 | 28.89° C | 70% | 1017.8 hPa | 0 mm | - | - | - |
| 1777475407 | 29.44° C | 70% | 1017.7 hPa | 0 mm | - | - | - |
| 1777475102 | 28.89° C | 72% | 1017.7 hPa | 0 mm | - | - | - |
| 1777474799 | 28.33° C | 67% | 1017.8 hPa | 0 mm | - | - | - |
| 1777474495 | 28.89° C | 67% | 1017.8 hPa | 0 mm | - | - | - |
| 1777474191 | 28.33° C | 71% | 1018 hPa | 0 mm | - | - | - |
| 1777473889 | 28.33° C | 71% | 1017.9 hPa | 0 mm | - | - | - |
| 1777473587 | 28.89° C | 68% | 1017.8 hPa | 0 mm | - | - | - |
| 1777473282 | 28.89° C | 66% | 1017.8 hPa | 0 mm | - | - | - |
| 1777472978 | 29.44° C | 63% | 1017.7 hPa | 0 mm | - | - | - |
| 1777472675 | 29.44° C | 62% | 1017.9 hPa | 0 mm | - | - | - |
| 1777472371 | 28.89° C | 67% | 1017.7 hPa | 0 mm | - | - | - |
| 1777472070 | 28.89° C | 69% | 1017.7 hPa | 0 mm | - | - | - |
* Rain latest hour (hover to see other rain measurements)
** Current wind speed in m/s (hover to see current wind gust speed)